Terminal Aerodrome Forecast
Issued by NWS

Home | Current Version | Previous Version | Text Only | Print | Product List | Glossary On
Versions: 1 2 3 4 5 6 7 8 9 10 11 12 13 14 15
088
FTUS42 TJSJ 061739
TAFJBQ
TAF
TJBQ 061739Z 0618/0718 03009KT P6SM VCSH SCT025 BKN040
      TEMPO 0619/0622 -SHRA BKN025
     FM062330 11005KT P6SM SCT035
     FM071330 08011KT P6SM SCT030
      AMD NOT SKED 0702/0711=

USA.gov is the U.S. government's official web portal to all federal, state and local government web resources and services.